Time;durP1;ratioP1;P1;durP2;ratioP2;P2;SDS_P1;SDS_P2;PMS_P1;PMS_P2;Temp;Humidity;BMP_temperature;BMP_pressure;BME280_temperature;BME280_humidity;BME280_pressure;Samples;Min_cycle;Max_cycle;Signal;HPM_P1;HPM_P2
2022/04/08 00:00:48;;;;;;;4.53;1.47;;;;;;;;;;5012254;28;20169;-50
2022/04/08 00:03:14;;;;;;;4.47;1.43;;;;;;;;;;5011693;28;20177;-46
2022/04/08 00:05:39;;;;;;;7.07;1.57;;;8.50;99.90;;;;;;5013302;28;20180;-46
2022/04/08 00:08:06;;;;;;;5.50;1.63;;;;;;;;;;5013033;28;20204;-47
2022/04/08 00:10:32;;;;;;;6.57;2.13;;;;;;;;;;5012885;28;20172;-47
2022/04/08 00:12:58;;;;;;;4.07;1.53;;;;;;;;;;5012641;28;20220;-51
2022/04/08 00:15:24;;;;;;;3.57;1.37;;;8.80;99.90;;;;;;5012771;28;20188;-51
2022/04/08 00:17:49;;;;;;;3.50;1.30;;;8.90;99.90;;;;;;5012816;28;20196;-47
2022/04/08 00:20:15;;;;;;;3.13;1.63;;;8.90;99.90;;;;;;5012642;28;20177;-50
2022/04/08 00:22:42;;;;;;;5.27;1.70;;;9.20;99.90;;;;;;5012436;28;20259;-48
2022/04/08 00:25:09;;;;;;;5.20;1.70;;;8.60;99.90;;;;;;5012614;28;20227;-46
2022/04/08 00:27:35;;;;;;;4.00;1.30;;;8.70;99.90;;;;;;5012666;28;20204;-48
2022/04/08 00:30:01;;;;;;;4.37;1.63;;;8.90;99.90;;;;;;5012561;28;20688;-48
2022/04/08 00:32:29;;;;;;;1.77;1.33;;;8.90;99.90;;;;;;5012162;28;20204;-49
2022/04/08 00:34:54;;;;;;;6.63;1.73;;;8.80;99.90;;;;;;5012636;28;20595;-46
2022/04/08 00:37:20;;;;;;;5.40;1.80;;;8.90;99.90;;;;;;5012199;28;20275;-46
2022/04/08 00:39:46;;;;;;;5.80;1.93;;;;;;;;;;5012512;28;20176;-51
2022/04/08 00:42:14;;;;;;;3.93;1.60;;;8.90;99.90;;;;;;5012210;28;20177;-48
2022/04/08 00:44:40;;;;;;;2.37;1.20;;;;;;;;;;5012413;28;20176;-50
2022/04/08 00:47:06;;;;;;;4.30;1.43;;;;;;;;;;5012084;28;20192;-52
2022/04/08 00:49:35;;;;;;;3.37;1.10;;;8.90;99.90;;;;;;5012434;28;20241;-47
2022/04/08 00:52:01;;;;;;;4.53;1.63;;;;;;;;;;5011951;28;20180;-49
2022/04/08 00:54:30;;;;;;;4.90;1.60;;;8.90;99.90;;;;;;5012127;28;20172;-48
2022/04/08 00:56:59;;;;;;;5.23;1.60;;;8.70;99.90;;;;;;5012091;28;20214;-49
2022/04/08 00:59:26;;;;;;;4.23;1.37;;;8.70;99.90;;;;;;5012117;28;20176;-51
2022/04/08 01:01:52;;;;;;;2.77;1.07;;;8.70;99.90;;;;;;5012159;28;20231;-51
2022/04/08 01:04:18;;;;;;;4.50;1.50;;;;;;;;;;5011744;28;20200;-54
2022/04/08 01:06:44;;;;;;;3.07;1.30;;;8.70;99.90;;;;;;5012159;28;20207;-49
2022/04/08 01:09:10;;;;;;;3.43;1.40;;;9.10;99.90;;;;;;5010647;28;20204;-50
2022/04/08 01:11:37;;;;;;;3.20;1.20;;;8.70;99.90;;;;;;5012112;28;20196;-50
2022/04/08 01:14:14;;;;;;;5.37;1.40;;;8.80;99.90;;;;;;5011284;28;20200;-51
2022/04/08 01:16:40;;;;;;;4.20;1.40;;;;;;;;;;5012011;28;20184;-48
2022/04/08 01:19:06;;;;;;;4.93;1.70;;;8.90;99.90;;;;;;5011823;28;20723;-50
2022/04/08 01:21:33;;;;;;;3.27;1.47;;;8.90;99.90;;;;;;5011982;28;20542;-46
2022/04/08 01:24:00;;;;;;;4.53;1.53;;;8.60;99.90;;;;;;5011697;28;20184;-47
2022/04/08 01:26:26;;;;;;;3.93;1.40;;;9.40;99.90;;;;;;5011759;28;20232;-47
2022/04/08 01:28:53;;;;;;;4.90;1.80;;;8.70;99.90;;;;;;5011909;28;20624;-46
2022/04/08 01:31:19;;;;;;;5.20;1.83;;;;;;;;;;5011649;28;20263;-52
2022/04/08 01:33:45;;;;;;;5.03;1.37;;;8.80;99.90;;;;;;5011600;28;20295;-52
2022/04/08 01:36:10;;;;;;;5.27;1.50;;;9.00;99.90;;;;;;5010379;28;20219;-49
2022/04/08 01:38:36;;;;;;;4.63;1.53;;;8.80;99.90;;;;;;5012070;28;20589;-48
2022/04/08 01:41:02;;;;;;;4.50;1.37;;;8.80;99.90;;;;;;5011673;28;20179;-50
2022/04/08 01:43:28;;;;;;;4.73;1.40;;;8.90;99.90;;;;;;5011467;28;20184;-49
2022/04/08 01:45:54;;;;;;;5.57;1.83;;;;;;;;;;5010339;28;20184;-49
2022/04/08 01:48:20;;;;;;;5.23;1.60;;;;;;;;;;5011672;28;20222;-47
2022/04/08 01:50:45;;;;;;;6.50;1.90;;;8.90;99.90;;;;;;5011865;28;20187;-48
2022/04/08 01:53:13;;;;;;;3.17;1.40;;;9.50;99.90;;;;;;5011183;28;20200;-51
2022/04/08 01:55:39;;;;;;;5.27;1.57;;;;;;;;;;5011695;28;20657;-45
2022/04/08 01:58:06;;;;;;;4.50;1.60;;;9.30;99.90;;;;;;5011430;28;20549;-47
2022/04/08 02:00:31;;;;;;;4.57;1.40;;;8.80;99.90;;;;;;5011738;28;20169;-46
2022/04/08 02:02:57;;;;;;;5.53;1.43;;;8.70;99.90;;;;;;5011055;28;20260;-52
2022/04/08 02:05:23;;;;;;;5.40;1.80;;;8.80;99.90;;;;;;5011660;28;20545;-51
2022/04/08 02:07:49;;;;;;;3.20;1.23;;;8.80;99.90;;;;;;5011335;28;20250;-49
2022/04/08 02:10:14;;;;;;;4.53;1.30;;;8.60;99.90;;;;;;5011608;28;20183;-48
2022/04/08 02:12:40;;;;;;;2.47;1.07;;;8.90;99.90;;;;;;5011188;28;20267;-50
2022/04/08 02:15:06;;;;;;;2.70;1.10;;;8.80;99.90;;;;;;5011346;28;20173;-51
2022/04/08 02:17:32;;;;;;;3.43;1.23;;;8.80;99.90;;;;;;5011499;28;20196;-46
2022/04/08 02:19:58;;;;;;;2.37;1.13;;;;;;;;;;5011236;28;20227;-51
2022/04/08 02:22:25;;;;;;;3.80;1.30;;;8.90;99.90;;;;;;5009937;28;20203;-45
2022/04/08 02:24:51;;;;;;;2.03;1.10;;;8.90;99.90;;;;;;5011242;28;20268;-47
2022/04/08 02:27:18;;;;;;;2.27;1.00;;;9.10;99.90;;;;;;5014095;28;20188;-49
2022/04/08 02:29:44;;;;;;;3.30;0.90;;;8.70;99.90;;;;;;5014687;28;20704;-48
2022/04/08 02:32:10;;;;;;;5.17;1.47;;;8.80;99.90;;;;;;5014679;28;20277;-48
2022/04/08 02:34:37;;;;;;;3.70;1.30;;;9.00;99.90;;;;;;5014615;28;20299;-48
2022/04/08 02:37:05;;;;;;;2.67;1.00;;;8.70;99.90;;;;;;5014488;28;20192;-49
2022/04/08 02:39:30;;;;;;;4.57;1.23;;;8.90;99.90;;;;;;5014677;28;20187;-46
2022/04/08 02:41:57;;;;;;;3.00;1.40;;;8.80;99.90;;;;;;5014397;28;20180;-51
2022/04/08 02:44:22;;;;;;;3.27;1.00;;;8.90;99.90;;;;;;5014611;28;20187;-49
2022/04/08 02:46:48;;;;;;;4.70;1.37;;;8.90;99.90;;;;;;5014309;28;20733;-46
2022/04/08 02:49:14;;;;;;;1.07;0.80;;;;;;;;;;5014552;28;20187;-49
2022/04/08 02:51:39;;;;;;;3.50;1.13;;;8.90;99.90;;;;;;5014239;28;20176;-48
2022/04/08 02:54:05;;;;;;;5.33;1.63;;;9.10;99.90;;;;;;5014070;28;20204;-46
2022/04/08 02:56:31;;;;;;;5.87;1.30;;;;;;;;;;5047273;23;20246;-51
2022/04/08 02:59:00;;;;;;;2.90;1.20;;;;;;;;;;5033641;28;20644;-57
2022/04/08 03:01:26;;;;;;;2.17;1.00;;;8.90;99.90;;;;;;5033650;28;20529;-57
2022/04/08 03:03:51;;;;;;;4.47;1.40;;;8.80;99.90;;;;;;5033467;28;20172;-54
2022/04/08 03:06:17;;;;;;;4.63;1.30;;;;;;;;;;5033836;28;20203;-56
2022/04/08 03:08:43;;;;;;;2.93;1.03;;;;;;;;;;5033445;28;20226;-57
2022/04/08 03:11:09;;;;;;;4.10;1.40;;;;;;;;;;5033705;28;20653;-56
2022/04/08 03:13:35;;;;;;;2.60;1.30;;;;;;;;;;5032765;28;20208;-56
2022/04/08 03:16:01;;;;;;;2.30;0.90;;;8.70;99.90;;;;;;5033126;28;20243;-55
2022/04/08 03:18:27;;;;;;;5.50;1.10;;;8.60;99.90;;;;;;5033517;28;20164;-56
2022/04/08 03:20:53;;;;;;;2.80;1.03;;;8.60;99.90;;;;;;5033330;28;20167;-53
2022/04/08 03:23:18;;;;;;;3.73;1.40;;;8.60;99.90;;;;;;5033102;28;20195;-52
2022/04/08 03:25:44;;;;;;;2.73;1.60;;;;;;;;;;5033128;28;20179;-56
2022/04/08 03:28:10;;;;;;;4.07;1.00;;;8.60;99.90;;;;;;5033347;28;20677;-52
2022/04/08 03:30:35;;;;;;;4.13;1.07;;;8.50;99.90;;;;;;5033369;28;20186;-53
2022/04/08 03:33:01;;;;;;;1.67;1.00;;;8.50;99.90;;;;;;5032855;28;20274;-56
2022/04/08 03:35:27;;;;;;;2.73;0.77;;;;;;;;;;5033298;28;20168;-55
2022/04/08 03:37:53;;;;;;;2.97;1.30;;;;;;;;;;5032874;28;20219;-54
2022/04/08 03:40:19;;;;;;;5.43;1.00;;;8.90;99.90;;;;;;5033275;28;20175;-57
2022/04/08 03:42:45;;;;;;;2.40;1.07;;;8.70;99.90;;;;;;5032612;28;20178;-56
2022/04/08 03:45:10;;;;;;;4.07;1.00;;;8.60;99.90;;;;;;5033412;28;20172;-52
2022/04/08 03:47:36;;;;;;;2.70;1.50;;;8.40;99.90;;;;;;5033059;28;20695;-53
2022/04/08 03:50:02;;;;;;;3.43;1.13;;;8.60;99.90;;;;;;5032901;28;20183;-51
2022/04/08 03:52:32;;;;;;;3.47;1.00;;;;;;;;;;5032418;28;20693;-51
2022/04/08 03:54:59;;;;;;;3.00;1.13;;;8.40;99.90;;;;;;5032761;28;20175;-52
2022/04/08 03:57:25;;;;;;;3.30;1.07;;;8.40;99.90;;;;;;5032494;28;20254;-53
2022/04/08 03:59:51;;;;;;;2.30;1.00;;;8.40;99.90;;;;;;5031386;28;20214;-52
2022/04/08 04:02:17;;;;;;;1.67;0.87;;;;;;;;;;5032471;28;20217;-53
2022/04/08 04:04:43;;;;;;;3.63;1.07;;;;;;;;;;5032090;28;20203;-55
2022/04/08 04:07:08;;;;;;;1.23;0.67;;;8.60;99.90;;;;;;5032782;28;20693;-52
2022/04/08 04:09:34;;;;;;;2.13;1.17;;;8.50;99.90;;;;;;5032822;28;20183;-52
2022/04/08 04:11:59;;;;;;;5.53;1.20;;;8.50;99.90;;;;;;5032099;28;20187;-52
2022/04/08 04:14:25;;;;;;;1.77;1.00;;;;;;;;;;5032203;28;20182;-52
2022/04/08 04:16:51;;;;;;;2.60;1.20;;;8.50;99.90;;;;;;5032109;28;20188;-53
2022/04/08 04:19:20;;;;;;;3.07;1.40;;;;;;;;;;5032291;28;20175;-52
2022/04/08 04:21:47;;;;;;;2.23;1.00;;;;;;;;;;5032053;28;20184;-54
2022/04/08 04:24:14;;;;;;;3.83;1.37;;;8.50;99.90;;;;;;5032144;28;20637;-54
2022/04/08 04:26:40;;;;;;;3.20;1.20;;;;;;;;;;5032066;28;20673;-53
2022/04/08 04:29:06;;;;;;;2.87;1.10;;;8.30;99.90;;;;;;5031970;28;20263;-55
2022/04/08 04:31:31;;;;;;;2.83;1.27;;;8.60;99.90;;;;;;5031902;28;20184;-52
2022/04/08 04:33:57;;;;;;;4.20;1.30;;;8.50;99.90;;;;;;5031562;28;20621;-52
2022/04/08 04:36:23;;;;;;;2.90;1.13;;;;;;;;;;5031916;28;20209;-58
2022/04/08 04:38:48;;;;;;;3.53;1.10;;;8.40;99.90;;;;;;5031249;28;20190;-52
2022/04/08 04:41:15;;;;;;;4.17;1.40;;;8.40;99.90;;;;;;5031448;28;20179;-53
2022/04/08 04:43:41;;;;;;;1.70;1.03;;;8.50;99.90;;;;;;5031556;28;20628;-54
2022/04/08 04:46:07;;;;;;;1.90;1.07;;;;;;;;;;5030970;28;20660;-56
2022/04/08 04:48:33;;;;;;;2.27;1.10;;;;;;;;;;5031054;28;20184;-53
2022/04/08 04:50:59;;;;;;;3.47;1.30;;;8.30;99.90;;;;;;5030662;28;20237;-54
2022/04/08 04:53:25;;;;;;;4.27;1.50;;;8.50;99.90;;;;;;5031547;28;20199;-57
2022/04/08 04:55:51;;;;;;;3.27;1.20;;;8.50;99.90;;;;;;5031674;28;20270;-56
2022/04/08 04:58:16;;;;;;;2.90;1.27;;;8.40;99.90;;;;;;5031508;28;20202;-55
2022/04/08 05:00:42;;;;;;;2.70;1.50;;;;;;;;;;5030195;28;20171;-55
2022/04/08 05:03:08;;;;;;;2.83;1.30;;;8.50;99.90;;;;;;5031011;28;20183;-53
2022/04/08 05:05:35;;;;;;;3.50;1.50;;;8.60;99.90;;;;;;5031028;28;20184;-55
2022/04/08 05:08:02;;;;;;;2.30;1.20;;;8.60;99.90;;;;;;5031175;28;20203;-55
2022/04/08 05:10:29;;;;;;;2.30;1.50;;;;;;;;;;5017542;28;20705;-56
2022/04/08 05:12:55;;;;;;;2.63;1.30;;;;;;;;;;5029584;28;20249;-56
2022/04/08 05:15:21;;;;;;;3.13;1.50;;;;;;;;;;5024093;28;20200;-56
2022/04/08 05:17:47;;;;;;;6.27;1.90;;;;;;;;;;5010460;28;20702;-55
2022/04/08 05:20:13;;;;;;;3.40;1.10;;;8.30;99.90;;;;;;5009299;28;20379;-53
2022/04/08 05:22:41;;;;;;;4.50;1.40;;;;;;;;;;5009795;28;20188;-54
2022/04/08 05:25:07;;;;;;;4.10;1.30;;;8.50;99.90;;;;;;5010147;28;20228;-53
2022/04/08 05:27:41;;;;;;;2.43;1.30;;;8.40;99.90;;;;;;5017576;28;20238;-54
2022/04/08 05:30:16;;;;;;;4.87;1.40;;;8.50;99.90;;;;;;5025686;28;20176;-52
2022/04/08 05:32:42;;;;;;;2.73;1.10;;;;;;;;;;5015284;28;20222;-54
2022/04/08 05:35:08;;;;;;;4.10;1.37;;;8.50;99.90;;;;;;5021918;28;20637;-53
2022/04/08 05:37:44;;;;;;;2.97;1.10;;;8.50;99.90;;;;;;5010051;28;20227;-52
2022/04/08 05:40:17;;;;;;;3.17;1.20;;;8.60;99.90;;;;;;5024310;28;20172;-57
2022/04/08 05:42:44;;;;;;;5.50;1.33;;;;;;;;;;5030285;28;20183;-57
2022/04/08 05:45:11;;;;;;;2.27;1.40;;;;;;;;;;5030977;28;20184;-57
2022/04/08 05:47:36;;;;;;;5.60;1.50;;;8.60;99.90;;;;;;5030496;28;20279;-56
2022/04/08 05:50:03;;;;;;;4.27;1.43;;;9.00;99.90;;;;;;5030732;28;20715;-54
2022/04/08 05:52:29;;;;;;;5.57;1.70;;;8.50;99.90;;;;;;5014842;28;20208;-56
2022/04/08 05:54:54;;;;;;;2.73;1.50;;;8.20;99.90;;;;;;5011183;28;20580;-53
2022/04/08 05:57:20;;;;;;;3.30;1.33;;;8.50;99.90;;;;;;5014948;28;20215;-53
2022/04/08 05:59:46;;;;;;;3.27;1.23;;;8.60;99.90;;;;;;5025782;28;20287;-53
2022/04/08 06:02:12;;;;;;;3.27;1.40;;;8.30;99.90;;;;;;5021203;28;20196;-53
2022/04/08 06:04:37;;;;;;;5.17;1.80;;;8.50;99.90;;;;;;5034710;28;20172;-54
2022/04/08 06:07:03;;;;;;;3.33;1.40;;;8.70;99.90;;;;;;5035115;28;20206;-54
2022/04/08 06:09:29;;;;;;;3.30;1.33;;;8.40;99.90;;;;;;5034809;28;20179;-55
2022/04/08 06:11:55;;;;;;;3.70;1.47;;;;;;;;;;5033669;28;20180;-49
2022/04/08 06:14:21;;;;;;;3.37;1.60;;;;;;;;;;5024114;28;20279;-55
2022/04/08 06:16:47;;;;;;;3.10;1.50;;;;;;;;;;5021479;28;20204;-56
2022/04/08 06:19:13;;;;;;;6.47;1.70;;;;;;;;;;5030402;28;20679;-52
2022/04/08 06:21:38;;;;;;;5.53;1.30;;;8.60;99.90;;;;;;5033806;28;20191;-51
2022/04/08 06:24:04;;;;;;;3.73;1.57;;;8.80;99.90;;;;;;5034456;28;20171;-54
2022/04/08 06:26:32;;;;;;;3.97;1.60;;;9.00;99.90;;;;;;5034750;28;20791;-54
2022/04/08 06:28:58;;;;;;;3.67;1.37;;;;;;;;;;5034583;28;20179;-53
2022/04/08 06:31:28;;;;;;;6.83;1.83;;;9.10;99.90;;;;;;5034480;28;20607;-55
2022/04/08 06:33:54;;;;;;;4.03;1.40;;;;;;;;;;5034261;28;20584;-52
2022/04/08 06:36:20;;;;;;;3.17;1.23;;;9.40;99.90;;;;;;5034395;28;20195;-56
2022/04/08 06:38:48;;;;;;;4.83;1.37;;;;;;;;;;5034525;28;20187;-54
2022/04/08 06:41:14;;;;;;;3.10;1.30;;;9.40;99.90;;;;;;5034661;28;20553;-53
2022/04/08 06:43:39;;;;;;;4.33;1.80;;;9.40;99.90;;;;;;5033917;28;20187;-51
2022/04/08 06:46:05;;;;;;;5.23;1.23;;;9.50;99.90;;;;;;5034360;28;20600;-51
2022/04/08 06:48:32;;;;;;;3.93;1.57;;;;;;;;;;5034261;28;20226;-53
2022/04/08 06:51:00;;;;;;;3.90;1.60;;;9.30;99.90;;;;;;5034313;28;20210;-51
2022/04/08 06:53:26;;;;;;;1.97;1.20;;;;;;;;;;5030939;28;20215;-52
2022/04/08 06:55:52;;;;;;;3.10;1.47;;;;;;;;;;5030260;28;20596;-53
2022/04/08 06:58:19;;;;;;;2.13;1.20;;;;;;;;;;5030119;28;20195;-52
2022/04/08 07:00:45;;;;;;;5.27;1.60;;;;;;;;;;5030416;28;20178;-54
2022/04/08 07:03:11;;;;;;;5.60;1.80;;;;;;;;;;5012259;28;20180;-54
2022/04/08 07:05:37;;;;;;;4.03;1.60;;;;;;;;;;5029907;28;20258;-52
2022/04/08 07:08:03;;;;;;;6.73;1.80;;;9.60;99.90;;;;;;5030167;28;20243;-52
2022/04/08 07:10:29;;;;;;;4.30;1.80;;;9.50;99.90;;;;;;5031857;28;20183;-51
2022/04/08 07:12:54;;;;;;;2.30;1.40;;;;;;;;;;5031818;28;20207;-51
2022/04/08 07:15:20;;;;;;;5.17;1.57;;;;;;;;;;5032186;28;20207;-53
2022/04/08 07:17:46;;;;;;;4.63;1.40;;;9.40;99.90;;;;;;5033268;28;20187;-51
2022/04/08 07:20:13;;;;;;;3.27;1.40;;;9.20;99.90;;;;;;5032458;28;20207;-50
2022/04/08 07:22:40;;;;;;;5.00;1.60;;;9.40;99.90;;;;;;5032093;28;20171;-52
2022/04/08 07:25:06;;;;;;;7.70;1.57;;;9.60;99.90;;;;;;5032066;28;20207;-53
2022/04/08 07:27:48;;;;;;;3.40;1.67;;;9.40;99.90;;;;;;5032264;28;20202;-53
2022/04/08 07:30:15;;;;;;;6.20;1.93;;;9.40;99.90;;;;;;5032559;28;20656;-53
2022/04/08 07:32:41;;;;;;;4.33;1.70;;;9.60;99.90;;;;;;5031965;28;20679;-55
2022/04/08 07:35:10;;;;;;;4.20;1.70;;;9.60;99.90;;;;;;5033348;28;20176;-50
2022/04/08 07:37:36;;;;;;;5.47;1.70;;;;;;;;;;5032949;28;20345;-57
2022/04/08 07:40:05;;;;;;;3.40;1.40;;;10.10;99.90;;;;;;5033390;28;20168;-53
2022/04/08 07:42:31;;;;;;;5.17;1.87;;;10.00;99.90;;;;;;5032671;28;20182;-53
2022/04/08 07:44:56;;;;;;;6.10;1.57;;;;;;;;;;5033320;28;20526;-51
2022/04/08 07:47:27;;;;;;;5.83;1.70;;;9.80;99.90;;;;;;5033079;28;20192;-54
2022/04/08 07:49:57;;;;;;;2.77;1.20;;;10.30;99.90;;;;;;5033067;28;20263;-55
2022/04/08 07:52:23;;;;;;;6.27;1.90;;;;;;;;;;5032784;28;20279;-56
2022/04/08 07:54:49;;;;;;;4.07;1.57;;;;;;;;;;5032991;28;20199;-52
2022/04/08 07:57:14;;;;;;;3.77;1.50;;;10.00;99.90;;;;;;5042899;28;20207;-51
2022/04/08 07:59:40;;;;;;;3.37;1.50;;;9.90;99.90;;;;;;5052686;28;20175;-53
2022/04/08 08:02:06;;;;;;;2.63;1.40;;;;;;;;;;5052706;28;20250;-58
2022/04/08 08:04:32;;;;;;;4.27;1.80;;;;;;;;;;5052203;28;20207;-51
2022/04/08 08:06:58;;;;;;;2.80;1.23;;;;;;;;;;5052700;28;20709;-56
2022/04/08 08:09:24;;;;;;;6.73;2.50;;;;;;;;;;5051194;28;20183;-55
2022/04/08 08:11:49;;;;;;;4.27;1.80;;;10.20;99.90;;;;;;5052415;28;20175;-51
2022/04/08 08:14:15;;;;;;;5.37;1.53;;;;;;;;;;5052304;28;20203;-52
2022/04/08 08:16:41;;;;;;;2.57;1.40;;;10.30;99.90;;;;;;5052293;28;20191;-53
2022/04/08 08:19:06;;;;;;;3.37;1.63;;;10.60;99.90;;;;;;5052558;28;20171;-54
2022/04/08 08:21:32;;;;;;;2.53;1.50;;;10.30;99.90;;;;;;5052203;28;20617;-51
2022/04/08 08:23:57;;;;;;;4.70;1.73;;;10.10;99.90;;;;;;5051658;28;20190;-51
2022/04/08 08:26:23;;;;;;;3.70;1.60;;;10.30;99.90;;;;;;5032121;28;20203;-53
2022/04/08 08:28:48;;;;;;;4.23;1.47;;;10.10;99.90;;;;;;5032548;28;20541;-51
2022/04/08 08:31:16;;;;;;;5.67;1.63;;;10.00;99.90;;;;;;5032452;28;20183;-51
2022/04/08 08:33:43;;;;;;;4.10;1.47;;;10.10;99.90;;;;;;5031720;28;20282;-51
2022/04/08 08:36:09;;;;;;;2.93;1.33;;;10.10;99.90;;;;;;5032355;28;20625;-52
2022/04/08 08:38:35;;;;;;;4.80;1.83;;;10.70;99.90;;;;;;5032080;28;20203;-52
2022/04/08 08:41:02;;;;;;;5.40;1.20;;;9.90;99.90;;;;;;5032050;28;20176;-53
2022/04/08 08:43:28;;;;;;;4.10;1.70;;;;;;;;;;5030770;28;20249;-52
2022/04/08 08:45:56;;;;;;;4.37;1.50;;;10.30;99.90;;;;;;5031689;28;20199;-53
2022/04/08 08:48:23;;;;;;;4.90;1.63;;;10.20;99.90;;;;;;5031717;28;20190;-52
2022/04/08 08:50:52;;;;;;;2.60;1.33;;;9.80;99.90;;;;;;5031284;28;20183;-53
2022/04/08 08:53:19;;;;;;;3.07;1.33;;;9.90;99.90;;;;;;5031177;28;20207;-51
2022/04/08 08:55:49;;;;;;;4.53;1.60;;;10.30;99.90;;;;;;5031776;28;20179;-53
2022/04/08 08:58:15;;;;;;;5.50;1.53;;;10.70;99.90;;;;;;5036884;28;20736;-55
2022/04/08 09:00:41;;;;;;;3.10;1.23;;;;;;;;;;5036966;28;20180;-55
2022/04/08 09:03:09;;;;;;;4.60;1.57;;;;;;;;;;5037061;28;20541;-56
2022/04/08 09:05:43;;;;;;;5.80;1.40;;;10.30;99.90;;;;;;5031408;28;20194;-56
2022/04/08 09:08:09;;;;;;;3.73;1.47;;;10.30;99.90;;;;;;5032610;28;20661;-53
2022/04/08 09:10:37;;;;;;;4.80;1.00;;;10.20;99.90;;;;;;5029769;28;20184;-55
2022/04/08 09:13:05;;;;;;;1.93;1.00;;;10.10;99.90;;;;;;5029617;28;20191;-55
2022/04/08 09:15:33;;;;;;;3.40;1.20;;;10.00;99.90;;;;;;5030259;28;20172;-55
2022/04/08 09:18:13;;;;;;;2.40;1.03;;;9.80;99.90;;;;;;5029494;28;20196;-54
2022/04/08 09:20:48;;;;;;;5.17;1.40;;;9.80;99.90;;;;;;5031200;28;20191;-54
2022/04/08 09:23:15;;;;;;;3.70;1.23;;;9.90;99.90;;;;;;5030331;28;20254;-53
2022/04/08 09:25:41;;;;;;;3.97;1.40;;;9.90;99.90;;;;;;5030360;28;20178;-54
2022/04/08 09:28:15;;;;;;;2.60;1.30;;;9.70;99.90;;;;;;5030460;28;20195;-54
2022/04/08 09:30:47;;;;;;;2.43;1.07;;;9.70;99.90;;;;;;5030367;28;20652;-53
2022/04/08 09:33:14;;;;;;;3.30;1.20;;;9.80;99.90;;;;;;5030641;28;20262;-54
2022/04/08 09:35:41;;;;;;;3.10;1.20;;;9.80;99.90;;;;;;5032937;28;20580;-54
2022/04/08 09:38:06;;;;;;;5.43;1.17;;;10.10;99.90;;;;;;5034864;28;20183;-52
2022/04/08 09:40:36;;;;;;;3.13;1.17;;;9.80;99.90;;;;;;5035126;28;20584;-52
2022/04/08 09:43:02;;;;;;;3.10;1.40;;;;;;;;;;5035334;28;20168;-50
2022/04/08 09:45:30;;;;;;;2.97;1.27;;;10.50;99.90;;;;;;5026913;28;20537;-53
2022/04/08 09:47:59;;;;;;;4.50;1.43;;;10.40;99.90;;;;;;5015735;28;20235;-53
2022/04/08 09:50:26;;;;;;;2.50;1.17;;;10.60;99.90;;;;;;5020769;28;20275;-52
2022/04/08 09:52:52;;;;;;;3.03;1.00;;;11.30;99.90;;;;;;5014953;28;20201;-53
2022/04/08 09:55:17;;;;;;;3.17;1.27;;;10.80;99.90;;;;;;5015414;28;20180;-54
2022/04/08 09:57:46;;;;;;;3.77;1.20;;;10.40;99.90;;;;;;5015206;28;20223;-51
2022/04/08 10:00:12;;;;;;;2.53;1.00;;;11.20;99.90;;;;;;5015669;28;20180;-54
2022/04/08 10:02:44;;;;;;;2.40;0.90;;;11.40;99.90;;;;;;5015055;28;20196;-53
2022/04/08 10:05:10;;;;;;;1.87;0.90;;;11.30;99.90;;;;;;5015451;28;20177;-51
2022/04/08 10:07:37;;;;;;;1.47;0.97;;;11.00;99.90;;;;;;5014891;28;20201;-56
2022/04/08 10:10:24;;;;;;;1.67;1.10;;;11.30;99.90;;;;;;5015307;28;20545;-53
2022/04/08 10:12:53;;;;;;;1.67;0.93;;;11.00;99.90;;;;;;5044516;28;20202;-52
2022/04/08 10:15:33;;;;;;;2.23;1.07;;;11.70;99.90;;;;;;5046994;28;20314;-51
2022/04/08 10:18:00;;;;;;;3.37;1.10;;;11.90;99.90;;;;;;5034364;28;20198;-54
2022/04/08 10:20:28;;;;;;;2.57;1.13;;;12.10;99.90;;;;;;5030724;28;20319;-56
2022/04/08 10:23:08;;;;;;;4.37;1.23;;;12.30;99.90;;;;;;5021706;28;20176;-54
2022/04/08 10:25:36;;;;;;;1.67;0.90;;;12.30;99.90;;;;;;5022150;28;20188;-55
2022/04/08 10:28:02;;;;;;;1.77;1.03;;;;;;;;;;5023428;28;20200;-54
2022/04/08 10:30:29;;;;;;;2.77;0.90;;;;;;;;;;5023688;28;20676;-55
2022/04/08 10:33:02;;;;;;;1.57;1.00;;;12.70;99.90;;;;;;5021816;28;20241;-54
2022/04/08 10:35:29;;;;;;;1.40;0.90;;;13.20;99.90;;;;;;5022816;28;20272;-52
2022/04/08 10:38:06;;;;;;;2.97;1.13;;;13.20;99.90;;;;;;5024313;28;20201;-55
2022/04/08 10:40:45;;;;;;;2.57;1.20;;;12.90;99.90;;;;;;5023816;28;20233;-51
2022/04/08 10:43:13;;;;;;;2.43;0.93;;;;;;;;;;5023586;28;20184;-54
2022/04/08 10:45:39;;;;;;;2.37;1.13;;;12.50;99.90;;;;;;5017931;28;20197;-55
2022/04/08 10:48:10;;;;;;;1.33;1.10;;;12.10;99.90;;;;;;5028405;28;20201;-55
2022/04/08 10:50:38;;;;;;;2.27;0.87;;;12.10;99.90;;;;;;5019670;28;20185;-56
2022/04/08 10:53:09;;;;;;;1.90;1.10;;;12.20;99.90;;;;;;5021003;28;20197;-54
2022/04/08 10:55:47;;;;;;;2.30;1.33;;;12.60;99.90;;;;;;5021943;28;20178;-52
2022/04/08 10:58:15;;;;;;;2.40;1.30;;;11.90;99.90;;;;;;5023816;28;20222;-52
2022/04/08 11:00:41;;;;;;;3.23;1.37;;;;;;;;;;5022064;28;20633;-55
2022/04/08 11:03:10;;;;;;;2.40;1.00;;;12.30;99.90;;;;;;5021946;28;20179;-56
2022/04/08 11:05:38;;;;;;;2.43;1.17;;;12.10;99.90;;;;;;5023581;28;20233;-56
2022/04/08 11:08:04;;;;;;;2.33;1.20;;;11.80;99.90;;;;;;5022075;28;20696;-56
2022/04/08 11:10:31;;;;;;;4.17;1.40;;;12.30;99.90;;;;;;5021473;28;20264;-56
2022/04/08 11:12:57;;;;;;;2.53;1.30;;;;;;;;;;5020779;28;20215;-55
2022/04/08 11:15:25;;;;;;;1.37;0.93;;;12.30;99.90;;;;;;5022167;28;20199;-53
2022/04/08 11:17:52;;;;;;;1.60;1.00;;;12.30;99.90;;;;;;5022076;28;20208;-54
2022/04/08 11:20:19;;;;;;;1.73;1.00;;;12.50;99.90;;;;;;5025716;28;20314;-53
2022/04/08 11:22:48;;;;;;;2.03;1.13;;;12.30;99.90;;;;;;5026314;28;20199;-55
2022/04/08 11:25:24;;;;;;;3.43;1.33;;;12.40;99.90;;;;;;5027230;28;20177;-54
2022/04/08 11:28:06;;;;;;;1.47;1.00;;;11.90;99.90;;;;;;5025912;28;20234;-52
2022/04/08 11:30:35;;;;;;;2.43;1.07;;;12.60;99.90;;;;;;5026395;28;20191;-55
2022/04/08 11:33:15;;;;;;;1.53;0.87;;;12.50;99.90;;;;;;5021615;28;20206;-52
2022/04/08 11:35:41;;;;;;;2.43;1.30;;;12.50;99.90;;;;;;5025994;28;20176;-52
2022/04/08 11:38:13;;;;;;;3.87;1.47;;;12.20;99.90;;;;;;5025942;28;20192;-53
2022/04/08 11:40:39;;;;;;;1.90;1.10;;;;;;;;;;5025171;28;20195;-58
2022/04/08 11:43:05;;;;;;;1.23;0.93;;;11.30;99.90;;;;;;5022470;28;20227;-52
2022/04/08 11:45:30;;;;;;;1.73;1.00;;;11.50;99.90;;;;;;5024230;28;20238;-53
2022/04/08 11:47:56;;;;;;;2.77;1.03;;;;;;;;;;5026679;28;20199;-50
2022/04/08 11:50:26;;;;;;;2.27;1.40;;;11.10;99.90;;;;;;5023449;28;20180;-53
2022/04/08 11:52:57;;;;;;;2.77;1.60;;;11.80;99.90;;;;;;5030919;28;20207;-50
2022/04/08 11:55:26;;;;;;;2.10;1.00;;;12.00;99.90;;;;;;5023542;28;20176;-51
2022/04/08 11:57:53;;;;;;;1.20;1.10;;;12.30;99.90;;;;;;5028633;28;20208;-53
2022/04/08 12:00:27;;;;;;;1.83;1.27;;;11.80;99.90;;;;;;5031465;28;20176;-53
2022/04/08 12:02:57;;;;;;;3.07;1.50;;;11.60;99.90;;;;;;5023116;28;20179;-53
2022/04/08 12:05:27;;;;;;;1.70;1.10;;;11.40;99.90;;;;;;5027826;28;20192;-55
2022/04/08 12:07:55;;;;;;;1.53;1.00;;;11.60;99.90;;;;;;5021810;28;21012;-54
2022/04/08 12:10:22;;;;;;;3.83;1.30;;;11.40;99.90;;;;;;5042272;28;20511;-57
2022/04/08 12:12:48;;;;;;;2.27;1.07;;;11.80;99.90;;;;;;5026941;28;20257;-51
2022/04/08 12:15:14;;;;;;;2.80;1.07;;;11.70;99.90;;;;;;5019649;28;20576;-52
2022/04/08 12:17:42;;;;;;;3.23;1.10;;;11.80;99.90;;;;;;5029012;28;20194;-51
2022/04/08 12:20:19;;;;;;;1.90;0.90;;;11.80;99.90;;;;;;5032245;28;20171;-52
2022/04/08 12:22:46;;;;;;;2.17;1.10;;;11.70;99.90;;;;;;5032302;28;20254;-51
2022/04/08 12:25:13;;;;;;;16.37;14.67;;;11.60;99.90;;;;;;5032467;28;20164;-55
2022/04/08 12:27:39;;;;;;;3.50;3.20;;;11.70;99.90;;;;;;5032177;28;20219;-52
2022/04/08 12:30:08;;;;;;;1.20;1.10;;;11.40;99.90;;;;;;5031802;28;20164;-51
2022/04/08 12:32:36;;;;;;;1.50;1.27;;;11.80;99.90;;;;;;5032055;28;20249;-53
2022/04/08 12:35:03;;;;;;;3.33;1.30;;;12.10;99.90;;;;;;5032143;28;20572;-56
2022/04/08 12:37:29;;;;;;;1.43;1.10;;;11.80;99.90;;;;;;5032321;28;20218;-55
2022/04/08 12:39:55;;;;;;;3.27;0.83;;;;;;;;;;5032112;28;20191;-54
2022/04/08 12:42:21;;;;;;;1.50;0.97;;;;;;;;;;5031844;28;20174;-54
2022/04/08 12:44:46;;;;;;;1.27;1.00;;;11.80;99.90;;;;;;5032312;28;20689;-52
2022/04/08 12:47:12;;;;;;;1.70;1.00;;;11.20;99.90;;;;;;5031967;28;20545;-55
2022/04/08 12:49:37;;;;;;;3.17;2.00;;;12.00;99.90;;;;;;5032154;28;20217;-55
2022/04/08 12:52:03;;;;;;;1.87;1.10;;;;;;;;;;5031826;28;20532;-55
2022/04/08 12:54:29;;;;;;;1.33;1.23;;;12.00;99.90;;;;;;5031811;28;20819;-56
2022/04/08 12:56:54;;;;;;;2.93;1.40;;;11.80;99.90;;;;;;5033830;28;20298;-56
2022/04/08 12:59:20;;;;;;;3.70;2.27;;;;;;;;;;5025373;28;20179;-51
2022/04/08 13:01:46;;;;;;;1.57;1.03;;;;;;;;;;5025787;28;20669;-54
2022/04/08 13:04:13;;;;;;;6.03;4.27;;;;;;;;;;5024464;28;20180;-55
2022/04/08 13:06:38;;;;;;;4.33;2.97;;;12.70;99.90;;;;;;5021223;28;20234;-52
2022/04/08 13:09:04;;;;;;;5.10;2.90;;;12.90;99.90;;;;;;5022216;28;20199;-54
2022/04/08 13:11:30;;;;;;;3.13;2.20;;;13.00;99.90;;;;;;5020451;28;20650;-50
2022/04/08 13:13:56;;;;;;;2.20;2.00;;;12.80;99.90;;;;;;5023622;28;20295;-53
2022/04/08 13:16:21;;;;;;;3.00;2.03;;;12.60;99.90;;;;;;5011982;28;20196;-56
2022/04/08 13:18:47;;;;;;;4.10;2.90;;;12.80;99.90;;;;;;5011649;28;20187;-52